createdAt,value
2018-09-07T00:01:15.236Z,19.20
2018-09-07T00:03:43.473Z,19.20
2018-09-07T00:06:16.721Z,19.20
2018-09-07T00:08:44.896Z,19.20
2018-09-07T00:11:13.047Z,19.10
2018-09-07T00:13:41.227Z,19.20
2018-09-07T00:16:09.461Z,19.20
2018-09-07T00:18:37.677Z,19.20
2018-09-07T00:21:06.059Z,19.10
2018-09-07T00:23:34.319Z,19.20
2018-09-07T00:26:02.492Z,19.20
2018-09-07T00:28:30.695Z,19.20
2018-09-07T00:30:58.989Z,19.20
2018-09-07T00:33:27.223Z,19.10
2018-09-07T00:35:55.435Z,19.10
2018-09-07T00:38:23.738Z,19.10
2018-09-07T00:40:51.878Z,19.10
2018-09-07T00:43:20.091Z,19.10
2018-09-07T00:45:48.245Z,19.10
2018-09-07T00:48:16.408Z,19.10
2018-09-07T00:50:44.591Z,19.00
2018-09-07T00:53:12.763Z,19.00
2018-09-07T00:55:40.928Z,19.00
2018-09-07T00:58:09.113Z,19.00
2018-09-07T01:00:37.315Z,19.00
2018-09-07T01:03:05.477Z,18.90
2018-09-07T01:05:33.632Z,18.90
2018-09-07T01:08:01.796Z,18.90
2018-09-07T01:10:30.735Z,18.80
2018-09-07T01:12:58.988Z,18.80
2018-09-07T01:15:27.203Z,18.70
2018-09-07T01:17:55.415Z,18.70
2018-09-07T01:20:23.539Z,18.70
2018-09-07T01:22:51.695Z,18.70
2018-09-07T01:25:19.872Z,18.70
2018-09-07T01:27:48.179Z,18.70
2018-09-07T01:30:16.334Z,18.60
2018-09-07T01:32:51.822Z,18.60
2018-09-07T01:35:20.012Z,18.60
2018-09-07T01:37:53.503Z,18.60
2018-09-07T01:40:21.671Z,18.60
2018-09-07T01:42:49.851Z,18.60
2018-09-07T01:45:18.001Z,18.60
2018-09-07T01:47:46.163Z,18.50
2018-09-07T01:50:14.332Z,18.50
2018-09-07T01:52:42.501Z,18.50
2018-09-07T01:55:10.712Z,18.50
2018-09-07T01:57:38.871Z,18.50
2018-09-07T02:00:09.404Z,18.50
2018-09-07T02:02:38.100Z,18.50
2018-09-07T02:05:06.455Z,18.60
2018-09-07T02:07:34.633Z,18.50
2018-09-07T02:10:02.906Z,18.60
2018-09-07T02:12:31.065Z,18.60
2018-09-07T02:15:05.071Z,18.60
2018-09-07T02:17:34.397Z,18.60
2018-09-07T02:20:02.603Z,18.60
2018-09-07T02:22:31.504Z,18.60
2018-09-07T02:24:59.720Z,18.60
2018-09-07T02:27:27.943Z,18.60
2018-09-07T02:29:56.123Z,18.60
2018-09-07T02:32:24.318Z,18.50
2018-09-07T02:34:52.469Z,18.60
2018-09-07T02:37:20.660Z,18.50
2018-09-07T02:39:48.880Z,18.60
2018-09-07T02:42:17.040Z,18.60
2018-09-07T02:44:45.212Z,18.60
2018-09-07T02:47:13.373Z,18.60
2018-09-07T02:49:41.867Z,18.60
2018-09-07T02:52:10.045Z,18.60
2018-09-07T02:54:38.240Z,18.60
2018-09-07T02:57:06.395Z,18.60
2018-09-07T02:59:34.555Z,18.60
2018-09-07T03:02:02.715Z,18.60
2018-09-07T03:04:30.889Z,18.60
2018-09-07T03:06:59.445Z,18.60
2018-09-07T03:09:29.701Z,18.60
2018-09-07T03:11:57.897Z,18.60
2018-09-07T03:14:26.081Z,18.60
2018-09-07T03:16:54.260Z,18.60
2018-09-07T03:19:22.536Z,18.70
2018-09-07T03:21:50.724Z,18.70
2018-09-07T03:24:18.884Z,18.70
2018-09-07T03:26:47.075Z,18.70
2018-09-07T03:29:15.536Z,18.70
2018-09-07T03:31:43.754Z,18.70
2018-09-07T03:34:11.875Z,18.70
2018-09-07T03:36:40.096Z,18.70
2018-09-07T03:39:08.752Z,18.70
2018-09-07T03:41:37.068Z,18.70
2018-09-07T03:44:05.297Z,18.80
2018-09-07T03:46:33.455Z,18.80
2018-09-07T03:49:01.632Z,18.80
2018-09-07T03:51:29.837Z,18.70
2018-09-07T03:53:58.019Z,18.70
2018-09-07T03:56:26.286Z,18.70
2018-09-07T03:58:54.468Z,18.70
2018-09-07T04:01:22.603Z,18.70
2018-09-07T04:03:50.789Z,18.60
2018-09-07T04:06:18.971Z,18.60
2018-09-07T04:08:47.142Z,18.50
2018-09-07T04:11:15.337Z,18.40
2018-09-07T04:13:43.844Z,18.40
2018-09-07T04:16:12.028Z,18.40
2018-09-07T04:18:40.246Z,18.40
2018-09-07T04:21:08.412Z,18.30
2018-09-07T04:23:38.541Z,18.30
2018-09-07T04:26:08.360Z,18.30
2018-09-07T04:28:37.015Z,18.20
2018-09-07T04:31:05.599Z,18.20
2018-09-07T04:33:34.593Z,18.20
2018-09-07T04:36:02.764Z,18.20
2018-09-07T04:38:31.161Z,18.20
2018-09-07T04:40:59.411Z,18.20
2018-09-07T04:43:27.593Z,18.10
2018-09-07T04:45:55.742Z,18.10
2018-09-07T04:48:23.961Z,18.20
2018-09-07T04:50:52.080Z,18.20
2018-09-07T04:53:20.211Z,18.20
2018-09-07T04:55:48.387Z,18.10
2018-09-07T04:58:16.642Z,18.10
2018-09-07T05:00:47.243Z,18.10
2018-09-07T05:03:15.495Z,18.10
2018-09-07T05:05:43.716Z,18.00
2018-09-07T05:08:11.993Z,18.00
2018-09-07T05:10:40.171Z,17.90
2018-09-07T05:13:08.365Z,17.90
2018-09-07T05:15:36.629Z,17.90
2018-09-07T05:18:04.979Z,18.00
2018-09-07T05:20:33.173Z,18.00
2018-09-07T05:23:01.337Z,18.00
2018-09-07T05:25:29.635Z,18.00
2018-09-07T05:27:57.896Z,17.90
2018-09-07T05:30:26.064Z,17.90
2018-09-07T05:32:54.244Z,17.90
2018-09-07T05:35:23.650Z,17.90
2018-09-07T05:37:51.928Z,18.00
2018-09-07T05:40:22.824Z,18.00
2018-09-07T05:42:51.948Z,18.00
2018-09-07T05:45:21.312Z,18.10
2018-09-07T05:47:49.728Z,18.10
2018-09-07T05:50:17.986Z,18.10
2018-09-07T05:52:46.141Z,18.20
2018-09-07T05:55:14.514Z,18.20
2018-09-07T05:57:42.710Z,18.30
2018-09-07T06:00:12.528Z,18.30
2018-09-07T06:02:41.484Z,18.30
2018-09-07T06:05:09.778Z,18.40
2018-09-07T06:07:38.183Z,18.30
2018-09-07T06:10:06.476Z,18.40
2018-09-07T06:12:36.574Z,18.40
2018-09-07T06:15:05.174Z,18.40
2018-09-07T06:17:33.448Z,18.40
2018-09-07T06:20:01.702Z,18.40
2018-09-07T06:22:30.080Z,18.40
2018-09-07T06:24:58.588Z,18.40
2018-09-07T06:27:26.950Z,18.40
2018-09-07T06:29:55.505Z,18.40
2018-09-07T06:32:23.798Z,18.40
2018-09-07T06:34:52.145Z,18.40
2018-09-07T06:37:20.376Z,18.40
2018-09-07T06:39:48.780Z,18.50
2018-09-07T06:42:43.412Z,18.40
2018-09-07T06:45:11.634Z,18.40
2018-09-07T06:47:39.941Z,18.40
2018-09-07T06:50:08.564Z,18.30
2018-09-07T06:52:36.752Z,18.30
2018-09-07T06:55:05.654Z,18.20
2018-09-07T06:57:39.106Z,18.30
2018-09-07T07:00:07.801Z,18.30
2018-09-07T07:02:36.802Z,18.40
2018-09-07T07:05:11.530Z,18.50
2018-09-07T07:07:39.928Z,18.60
2018-09-07T07:10:08.690Z,18.70
2018-09-07T07:12:39.459Z,18.70
2018-09-07T07:15:14.287Z,18.90
2018-09-07T07:17:48.377Z,19.10
2018-09-07T07:20:16.948Z,19.20
2018-09-07T07:22:47.535Z,19.40
2018-09-07T07:25:16.997Z,19.40
2018-09-07T07:27:45.231Z,19.40
2018-09-07T07:30:26.496Z,19.40
2018-09-07T07:32:57.748Z,19.50
2018-09-07T07:35:27.296Z,19.40
2018-09-07T07:38:00.746Z,19.40
2018-09-07T07:40:29.016Z,19.40
2018-09-07T07:42:59.867Z,19.40
2018-09-07T07:45:28.739Z,19.40
2018-09-07T07:47:57.265Z,19.50
2018-09-07T07:50:35.112Z,19.60
2018-09-07T07:53:05.698Z,19.70
2018-09-07T07:55:35.795Z,19.70
2018-09-07T07:58:04.300Z,19.70
2018-09-07T08:00:32.856Z,19.80
2018-09-07T08:03:02.813Z,19.80
2018-09-07T08:05:32.259Z,19.70
2018-09-07T08:08:01.048Z,19.70
2018-09-07T08:10:31.178Z,19.70
2018-09-07T08:13:00.228Z,19.70
2018-09-07T08:15:36.734Z,19.80
2018-09-07T08:18:06.663Z,19.80
2018-09-07T08:20:38.025Z,19.90
2018-09-07T08:23:07.221Z,19.90
2018-09-07T08:25:42.220Z,20.00
2018-09-07T08:28:10.528Z,20.20
2018-09-07T08:30:42.917Z,20.30
2018-09-07T08:33:11.710Z,20.40
2018-09-07T08:35:46.735Z,20.40
2018-09-07T08:38:15.940Z,20.30
2018-09-07T08:40:44.776Z,20.30
2018-09-07T08:43:13.934Z,20.20
2018-09-07T08:45:43.284Z,20.20
2018-09-07T08:48:11.640Z,20.10
2018-09-07T08:50:50.266Z,20.00
2018-09-07T08:53:22.767Z,20.10
2018-09-07T08:55:53.252Z,20.10
2018-09-07T08:58:23.942Z,20.10
2018-09-07T09:00:52.413Z,20.00
2018-09-07T09:03:23.503Z,20.00
2018-09-07T09:05:54.910Z,20.00
2018-09-07T09:08:30.278Z,20.00
2018-09-07T09:11:12.862Z,20.00
2018-09-07T09:13:43.860Z,20.00
2018-09-07T09:16:29.127Z,20.10
2018-09-07T09:19:13.648Z,20.00
2018-09-07T09:21:46.824Z,20.10
2018-09-07T09:24:22.204Z,20.20
2018-09-07T09:26:50.813Z,20.20
2018-09-07T09:29:19.227Z,20.20
2018-09-07T09:31:47.452Z,20.30
2018-09-07T09:34:15.791Z,20.40
2018-09-07T09:36:44.068Z,20.60
2018-09-07T09:39:12.683Z,20.70
2018-09-07T09:41:45.898Z,20.80
2018-09-07T09:44:14.084Z,20.90
2018-09-07T09:46:43.004Z,21.00
2018-09-07T09:49:11.764Z,21.10
2018-09-07T09:51:40.605Z,21.20
2018-09-07T09:54:09.109Z,21.20
2018-09-07T09:56:42.247Z,21.30
2018-09-07T09:59:14.929Z,21.20
2018-09-07T10:01:48.703Z,21.20
2018-09-07T10:04:25.065Z,21.10
2018-09-07T10:06:53.449Z,21.20
2018-09-07T10:09:21.700Z,21.20
2018-09-07T10:11:50.073Z,21.10
2018-09-07T10:14:18.280Z,21.00
2018-09-07T10:16:46.595Z,20.80
2018-09-07T10:19:14.912Z,20.80
2018-09-07T10:21:43.289Z,20.80
2018-09-07T10:24:11.571Z,20.80
2018-09-07T10:26:39.820Z,20.90
2018-09-07T10:29:08.020Z,20.90
2018-09-07T10:31:45.661Z,21.10
2018-09-07T10:34:14.864Z,21.20
2018-09-07T10:37:12.090Z,21.30
2018-09-07T10:39:40.513Z,21.30
2018-09-07T10:42:28.000Z,21.30
2018-09-07T10:44:57.871Z,21.20
2018-09-07T10:47:31.180Z,21.20
2018-09-07T10:49:59.952Z,21.20
2018-09-07T10:55:27.860Z,21.30
2018-09-07T10:58:03.507Z,21.30
2018-09-07T11:00:33.473Z,21.50
2018-09-07T11:03:39.664Z,21.60
2018-09-07T11:06:07.895Z,21.70
2018-09-07T11:08:36.426Z,21.90
2018-09-07T11:11:07.984Z,22.00
2018-09-07T11:13:36.792Z,22.00
2018-09-07T11:16:05.425Z,22.10
2018-09-07T11:18:40.321Z,22.00
2018-09-07T11:21:08.697Z,22.00
2018-09-07T11:23:36.879Z,21.90
2018-09-07T11:26:09.866Z,21.80
2018-09-07T11:28:44.346Z,21.80
2018-09-07T11:31:31.833Z,21.70
2018-09-07T11:34:10.865Z,21.70
2018-09-07T11:36:45.213Z,21.70
2018-09-07T11:39:22.497Z,21.70
2018-09-07T11:41:52.547Z,21.70
2018-09-07T11:44:27.114Z,21.70
2018-09-07T11:46:55.933Z,21.80
2018-09-07T11:49:24.323Z,21.90
2018-09-07T11:51:52.426Z,22.10
2018-09-07T11:54:24.438Z,22.10
2018-09-07T11:56:52.798Z,22.10
2018-09-07T11:59:27.209Z,22.10
2018-09-07T12:01:55.362Z,22.10
2018-09-07T12:04:25.101Z,22.10
2018-09-07T12:06:54.537Z,22.10
2018-09-07T12:09:22.836Z,22.10
2018-09-07T12:11:52.327Z,22.20
2018-09-07T12:14:20.712Z,22.10
2018-09-07T12:16:49.032Z,22.00
2018-09-07T12:19:19.327Z,22.10
2018-09-07T12:21:47.829Z,22.10
2018-09-07T12:24:18.116Z,22.10
2018-09-07T12:26:46.997Z,22.10
2018-09-07T12:29:15.340Z,22.20
2018-09-07T12:31:43.700Z,22.30
2018-09-07T12:34:12.126Z,22.20
2018-09-07T12:36:40.373Z,22.20
2018-09-07T12:39:09.538Z,22.20
2018-09-07T12:41:39.110Z,22.20
2018-09-07T12:44:07.397Z,22.10
2018-09-07T12:46:36.233Z,22.10
2018-09-07T12:49:05.036Z,21.90
2018-09-07T12:51:33.638Z,21.90
2018-09-07T12:54:01.895Z,21.70
2018-09-07T12:56:30.474Z,21.70
2018-09-07T12:58:58.772Z,21.50
2018-09-07T13:01:26.961Z,21.30
2018-09-07T13:03:55.150Z,21.20
2018-09-07T13:06:26.325Z,21.00
2018-09-07T13:08:54.806Z,20.80
2018-09-07T13:11:22.997Z,20.80
2018-09-07T13:13:51.353Z,20.70
2018-09-07T13:16:19.593Z,20.70
2018-09-07T13:18:47.982Z,20.70
2018-09-07T13:21:16.669Z,20.60
2018-09-07T13:23:45.007Z,20.60
2018-09-07T13:26:13.204Z,20.50
2018-09-07T13:28:41.559Z,20.30
2018-09-07T13:31:10.122Z,20.20
2018-09-07T13:33:38.540Z,20.00
2018-09-07T13:36:07.122Z,19.60
2018-09-07T13:38:35.320Z,19.10
2018-09-07T13:41:03.742Z,18.70
2018-09-07T13:43:32.154Z,18.60
2018-09-07T13:46:00.388Z,18.50
2018-09-07T13:48:28.670Z,18.60
2018-09-07T13:50:57.578Z,18.70
2018-09-07T13:53:25.870Z,18.80
2018-09-07T13:55:54.132Z,18.90
2018-09-07T13:58:24.312Z,19.10
2018-09-07T14:00:53.161Z,19.20
2018-09-07T14:03:21.421Z,19.30
2018-09-07T14:05:49.733Z,19.30
2018-09-07T14:08:17.991Z,19.50
2018-09-07T14:10:46.245Z,19.50
2018-09-07T14:13:14.753Z,19.50
2018-09-07T14:15:43.042Z,19.50
2018-09-07T14:18:11.210Z,19.40
2018-09-07T14:20:39.513Z,19.40
2018-09-07T14:23:08.161Z,19.30
2018-09-07T14:25:36.382Z,19.30
2018-09-07T14:28:04.730Z,19.30
2018-09-07T14:30:32.937Z,19.30
2018-09-07T14:33:01.376Z,19.30
2018-09-07T14:35:29.568Z,19.30
2018-09-07T14:37:57.731Z,19.30
2018-09-07T14:40:25.860Z,19.30
2018-09-07T14:42:54.055Z,19.20
2018-09-07T14:45:22.248Z,19.00
2018-09-07T14:47:50.396Z,19.00
2018-09-07T14:50:18.637Z,18.70
2018-09-07T14:52:46.841Z,18.40
2018-09-07T14:55:15.076Z,18.20
2018-09-07T14:57:43.185Z,17.90
2018-09-07T15:00:11.453Z,17.70
2018-09-07T15:02:39.720Z,17.40
2018-09-07T15:05:07.915Z,17.30
2018-09-07T15:07:36.408Z,17.30
2018-09-07T15:10:04.585Z,17.30
2018-09-07T15:12:32.761Z,17.30
2018-09-07T15:15:01.152Z,17.30
2018-09-07T15:17:29.446Z,17.30
2018-09-07T15:19:57.645Z,17.40
2018-09-07T15:22:25.846Z,17.50
2018-09-07T15:24:54.035Z,17.60
2018-09-07T15:27:22.226Z,17.50
2018-09-07T15:29:50.629Z,17.50
2018-09-07T15:32:18.761Z,17.50
2018-09-07T15:34:47.011Z,17.40
2018-09-07T15:37:15.280Z,17.40
2018-09-07T15:39:43.456Z,17.40
2018-09-07T15:42:11.652Z,17.30
2018-09-07T15:44:39.833Z,17.20
2018-09-07T15:47:08.168Z,17.10
2018-09-07T15:49:36.351Z,17.10
2018-09-07T15:52:04.565Z,16.90
2018-09-07T15:54:32.740Z,16.80
2018-09-07T15:57:00.888Z,16.70
2018-09-07T15:59:29.078Z,16.70
2018-09-07T16:01:57.249Z,16.70
2018-09-07T16:04:25.532Z,16.70
2018-09-07T16:06:53.777Z,16.70
2018-09-07T16:09:22.083Z,16.80
2018-09-07T16:11:50.402Z,16.70
2018-09-07T16:14:18.603Z,16.70
2018-09-07T16:16:47.027Z,16.70
2018-09-07T16:19:15.240Z,16.70
2018-09-07T16:21:43.764Z,16.60
2018-09-07T16:24:12.004Z,16.40
2018-09-07T16:26:40.422Z,16.40
2018-09-07T16:29:08.718Z,16.40
2018-09-07T16:31:36.993Z,16.30
2018-09-07T16:34:05.156Z,16.10
2018-09-07T16:36:33.405Z,16.00
2018-09-07T16:39:01.701Z,15.90
2018-09-07T16:41:29.850Z,15.90
2018-09-07T16:43:58.032Z,15.90
2018-09-07T16:46:26.180Z,15.90
2018-09-07T16:48:54.378Z,15.90
2018-09-07T16:51:22.573Z,16.00
2018-09-07T16:53:50.742Z,16.10
2018-09-07T16:56:19.673Z,16.20
2018-09-07T16:58:47.895Z,16.30
2018-09-07T17:01:16.109Z,16.40
2018-09-07T17:03:44.296Z,16.40
2018-09-07T17:06:12.491Z,16.30
2018-09-07T17:08:40.663Z,16.20
2018-09-07T17:11:08.825Z,16.20
2018-09-07T17:13:38.226Z,16.10
2018-09-07T17:16:06.567Z,16.00
2018-09-07T17:18:34.754Z,15.80
2018-09-07T17:21:02.892Z,15.70
2018-09-07T17:23:31.088Z,15.60
2018-09-07T17:25:59.235Z,15.50
2018-09-07T17:28:27.411Z,15.40
2018-09-07T17:30:55.586Z,15.20
2018-09-07T17:33:23.757Z,15.20
2018-09-07T17:35:51.875Z,15.10
2018-09-07T17:38:20.607Z,15.10
2018-09-07T17:40:48.798Z,15.00
2018-09-07T17:43:16.938Z,14.90
2018-09-07T17:45:45.068Z,14.80
2018-09-07T17:48:13.313Z,14.80
2018-09-07T17:50:41.445Z,14.70
2018-09-07T17:53:09.607Z,14.60
2018-09-07T17:55:37.828Z,14.50
2018-09-07T17:58:05.990Z,14.50
2018-09-07T18:00:34.172Z,14.40
2018-09-07T18:03:02.303Z,14.40
2018-09-07T18:05:32.691Z,14.40
2018-09-07T18:08:00.836Z,14.30
2018-09-07T18:10:29.163Z,14.30
2018-09-07T18:12:57.356Z,14.20
2018-09-07T18:15:25.523Z,14.20
2018-09-07T18:17:53.756Z,14.10
2018-09-07T18:20:21.984Z,14.10
2018-09-07T18:22:50.140Z,14.00
2018-09-07T18:25:18.283Z,14.00
2018-09-07T18:27:46.451Z,14.00
2018-09-07T18:30:14.610Z,14.00
2018-09-07T18:32:42.799Z,13.90
2018-09-07T18:35:11.084Z,13.90
2018-09-07T18:37:41.323Z,13.90
2018-09-07T18:40:09.528Z,13.80
2018-09-07T18:42:37.733Z,13.80
2018-09-07T18:45:05.984Z,13.70
2018-09-07T18:47:34.615Z,13.70
2018-09-07T18:50:02.847Z,13.70
2018-09-07T18:52:31.072Z,13.70
2018-09-07T18:54:59.291Z,13.60
2018-09-07T18:57:27.501Z,13.60
2018-09-07T18:59:55.716Z,13.60
2018-09-07T19:02:25.983Z,13.50
2018-09-07T19:04:54.181Z,13.50
2018-09-07T19:07:22.364Z,13.50
2018-09-07T19:09:50.644Z,13.50
2018-09-07T19:12:18.872Z,13.40
2018-09-07T19:14:47.104Z,13.40
2018-09-07T19:17:15.319Z,13.30
2018-09-07T19:19:43.514Z,13.30
2018-09-07T19:22:11.702Z,13.30
2018-09-07T19:24:39.988Z,13.30
2018-09-07T19:27:08.154Z,13.30
2018-09-07T19:29:36.313Z,13.20
2018-09-07T19:32:04.488Z,13.30
2018-09-07T19:34:32.895Z,13.20
2018-09-07T19:37:01.160Z,13.30
2018-09-07T19:39:29.789Z,13.20
2018-09-07T19:41:57.984Z,13.20
2018-09-07T19:44:26.261Z,13.20
2018-09-07T19:46:54.400Z,13.20
2018-09-07T19:49:22.569Z,13.10
2018-09-07T19:51:50.809Z,13.10
2018-09-07T19:54:19.080Z,13.10
2018-09-07T19:56:47.270Z,13.10
2018-09-07T19:59:15.453Z,13.00
2018-09-07T20:01:43.964Z,13.00
2018-09-07T20:04:12.226Z,13.00
2018-09-07T20:06:40.489Z,12.90
2018-09-07T20:09:08.654Z,12.80
2018-09-07T20:11:36.845Z,12.80
2018-09-07T20:14:05.016Z,12.80
2018-09-07T20:16:33.263Z,12.80
2018-09-07T20:19:01.515Z,12.80
2018-09-07T20:21:29.776Z,12.80
2018-09-07T20:23:57.989Z,12.80
2018-09-07T20:26:26.227Z,12.70
2018-09-07T20:28:54.406Z,12.70
2018-09-07T20:31:23.628Z,12.70
2018-09-07T20:33:51.856Z,12.60
2018-09-07T20:36:20.973Z,12.60
2018-09-07T20:38:49.168Z,12.60
2018-09-07T20:41:17.394Z,12.50
2018-09-07T20:43:45.625Z,12.50
2018-09-07T20:46:13.782Z,12.50
2018-09-07T20:48:42.043Z,12.40
2018-09-07T20:51:10.216Z,12.40
2018-09-07T20:53:38.389Z,12.40
2018-09-07T20:56:06.713Z,12.40
2018-09-07T20:58:34.944Z,12.40
2018-09-07T21:01:03.094Z,12.30
2018-09-07T21:03:31.298Z,12.30
2018-09-07T21:05:59.519Z,12.30
2018-09-07T21:08:27.753Z,12.20
2018-09-07T21:10:55.932Z,12.20
2018-09-07T21:13:24.084Z,12.10
2018-09-07T21:15:52.272Z,12.10
2018-09-07T21:18:20.548Z,12.10
2018-09-07T21:20:48.729Z,12.00
2018-09-07T21:23:16.915Z,12.00
2018-09-07T21:25:45.114Z,12.00
2018-09-07T21:28:13.317Z,12.00
2018-09-07T21:30:41.515Z,12.00
2018-09-07T21:33:09.690Z,12.00
2018-09-07T21:35:37.883Z,11.90
2018-09-07T21:38:06.203Z,11.90
2018-09-07T21:40:34.332Z,11.90
2018-09-07T21:43:02.511Z,11.90
2018-09-07T21:45:31.774Z,11.80
2018-09-07T21:48:00.138Z,11.80
2018-09-07T21:50:28.341Z,11.80
2018-09-07T21:52:56.532Z,11.80
2018-09-07T21:55:24.844Z,11.80
2018-09-07T21:57:53.037Z,11.80
2018-09-07T22:00:21.248Z,11.80
2018-09-07T22:02:49.511Z,11.80
2018-09-07T22:05:17.779Z,11.80
2018-09-07T22:07:51.247Z,11.80
2018-09-07T22:10:19.479Z,11.80
2018-09-07T22:12:47.662Z,11.80
2018-09-07T22:15:15.841Z,11.80
2018-09-07T22:17:43.996Z,11.80
2018-09-07T22:20:12.173Z,11.80
2018-09-07T22:22:40.432Z,11.80
2018-09-07T22:25:08.700Z,11.80
2018-09-07T22:27:36.980Z,11.80
2018-09-07T22:30:05.162Z,11.80
2018-09-07T22:32:33.356Z,11.80
2018-09-07T22:35:01.519Z,11.70
2018-09-07T22:37:29.778Z,11.70
2018-09-07T22:39:57.968Z,11.60
2018-09-07T22:42:26.195Z,11.60
2018-09-07T22:44:54.556Z,11.60
2018-09-07T22:47:22.749Z,11.50
2018-09-07T22:49:50.966Z,11.50
2018-09-07T22:52:19.172Z,11.60
2018-09-07T22:54:47.344Z,11.60
2018-09-07T22:57:15.605Z,11.60
2018-09-07T22:59:43.794Z,11.60
2018-09-07T23:02:12.044Z,11.60
2018-09-07T23:04:40.293Z,11.60
2018-09-07T23:07:08.489Z,11.60
2018-09-07T23:09:36.631Z,11.50
2018-09-07T23:12:04.851Z,11.60
2018-09-07T23:14:33.131Z,11.60
2018-09-07T23:17:01.456Z,11.50
2018-09-07T23:19:30.015Z,11.40
2018-09-07T23:21:58.623Z,11.30
2018-09-07T23:24:27.372Z,11.40
2018-09-07T23:26:55.677Z,11.40
2018-09-07T23:29:23.824Z,11.40
2018-09-07T23:31:52.099Z,11.40
2018-09-07T23:34:25.192Z,11.40
2018-09-07T23:36:53.401Z,11.40
2018-09-07T23:39:21.736Z,11.40
2018-09-07T23:41:50.009Z,11.40
2018-09-07T23:44:18.247Z,11.40
2018-09-07T23:46:46.438Z,11.40
2018-09-07T23:49:14.619Z,11.40
2018-09-07T23:51:42.802Z,11.40
2018-09-07T23:54:11.140Z,11.50
2018-09-07T23:56:39.350Z,11.50
2018-09-07T23:59:07.570Z,11.50
